Alderson, West Virginia
Current Conditions -  °F | °C
As of 8:15 AM on Thursday 18 Dec 2014 (Local Time) from KLWB Reporting Station
Clear Clear  
Wind Chill: 28°   Ceiling: Unl
Heat Index: 28°   Visibility: 10mi
Dew Point: 20°   Wind: 3mph
Humidity: 73%   Direction: 260°W
Pressure: 30.13"   Gusts: NA
Location:  37.73°N, 80.64°W
Report Text: KLWB 181315Z AUTO 26003KT 10SM CLR M02/M06 A3013 RMK AO2 T10231065
Loading
Personal Weather Stations






























Interactive Weather Map New forecast layout! Learn more

10-Day Weather Forecast

Advertisements
Track Severe Weather on mobile